createdAt,value
2018-12-10T00:08:17.957Z,6.4
2018-12-10T00:23:23.816Z,6.3
2018-12-10T00:38:43.179Z,6.3
2018-12-10T00:53:56.086Z,6.3
2018-12-10T01:09:08.617Z,6.2
2018-12-10T01:24:21.553Z,6
2018-12-10T01:39:33.917Z,5.9
2018-12-10T01:54:46.692Z,6
2018-12-10T02:09:59.634Z,6.1
2018-12-10T02:25:12.244Z,6.1
2018-12-10T02:40:19.143Z,6.1
2018-12-10T02:55:37.667Z,6
2018-12-10T03:10:50.277Z,5.7
2018-12-10T03:26:02.563Z,5.6
2018-12-10T03:41:15.221Z,5.4
2018-12-10T03:56:27.651Z,5.2
2018-12-10T04:11:40.190Z,5.1
2018-12-10T04:26:52.557Z,5.1
2018-12-10T04:42:04.806Z,5
2018-12-10T04:57:12.248Z,5
2018-12-10T05:12:29.417Z,5
2018-12-10T05:27:41.453Z,4.8
2018-12-10T05:42:53.988Z,4.8
2018-12-10T05:58:06.124Z,4.7
2018-12-10T06:13:18.390Z,4.7
2018-12-10T06:28:30.450Z,4.5
2018-12-10T06:43:42.543Z,4.4
2018-12-10T06:58:54.706Z,4.4
2018-12-10T07:14:04.174Z,4.5
2018-12-10T07:29:18.925Z,4.2
2018-12-10T07:44:30.927Z,4.1
2018-12-10T07:59:42.986Z,4.5
2018-12-10T08:14:46.619Z,4.7
2018-12-10T08:30:07.473Z,4.9
2018-12-10T08:45:19.785Z,5
2018-12-10T09:00:32.182Z,4.7
2018-12-10T09:15:44.304Z,4.6
2018-12-10T09:30:55.771Z,4.8
2018-12-10T09:46:08.975Z,4.9
2018-12-10T10:01:21.157Z,5.1
2018-12-10T10:16:33.536Z,5.1
2018-12-10T10:31:39.164Z,5.4
2018-12-10T10:46:58.646Z,6.4
2018-12-10T11:02:12.172Z,6.6
2018-12-10T11:17:26.463Z,6.8
2018-12-10T11:32:40.638Z,7
2018-12-10T11:47:50.314Z,6.3
2018-12-10T12:03:06.225Z,5.9
2018-12-10T12:18:20.098Z,5.7
2018-12-10T12:33:31.791Z,6.6
2018-12-10T12:48:34.519Z,5.9
2018-12-10T13:03:59.043Z,5.6
2018-12-10T13:19:09.509Z,5.5
2018-12-10T13:34:22.000Z,5.5
2018-12-10T13:49:34.662Z,6.3
2018-12-10T14:04:44.655Z,5.8
2018-12-10T14:19:59.970Z,5.6
2018-12-10T14:35:12.606Z,5.2
2018-12-10T14:50:24.786Z,5
2018-12-10T15:05:28.052Z,4.7
2018-12-10T15:20:49.301Z,4.7
2018-12-10T15:36:01.509Z,4.7
2018-12-10T15:51:13.794Z,4.7
2018-12-10T16:06:26.057Z,4.8
2018-12-10T16:21:37.672Z,4.9
2018-12-10T16:36:53.680Z,4.7
2018-12-10T16:52:02.717Z,4.5
2018-12-10T17:07:14.940Z,4.4
2018-12-10T17:22:19.728Z,4.4
2018-12-10T17:37:39.292Z,4.5
2018-12-10T17:52:51.283Z,4.3
2018-12-10T18:08:03.410Z,4.2
2018-12-10T18:23:15.434Z,3.9
2018-12-10T18:38:27.242Z,3.7
2018-12-10T18:53:39.130Z,3.6
2018-12-10T19:08:50.874Z,3.3
2018-12-10T19:24:02.732Z,3.3
2018-12-10T19:39:08.951Z,3.4
2018-12-10T19:54:26.149Z,3.6
2018-12-10T20:09:38.262Z,3.7
2018-12-10T20:24:50.009Z,3.8
2018-12-10T20:40:01.930Z,3.4
2018-12-10T20:55:13.563Z,3.4
2018-12-10T21:10:25.261Z,3.5
2018-12-10T21:25:37.111Z,3.6
2018-12-10T21:40:48.921Z,3.6
2018-12-10T21:55:57.392Z,3.7
2018-12-10T22:11:13.232Z,3.8
2018-12-10T22:26:24.816Z,4
2018-12-10T22:41:36.735Z,4.1
2018-12-10T22:53:57.623Z,3.8
2018-12-10T23:09:09.543Z,3.9
2018-12-10T23:24:21.604Z,3.9
2018-12-10T23:39:33.489Z,3.8
2018-12-10T23:54:45.574Z,3.6
